Time;durP1;ratioP1;P1;durP2;ratioP2;P2;SDS_P1;SDS_P2;PMS_P1;PMS_P2;Temp;Humidity;BMP_temperature;BMP_pressure;BME280_temperature;BME280_humidity;BME280_pressure;Samples;Min_cycle;Max_cycle;Signal;HPM_P1;HPM_P2
2022/06/07 00:02:14;;;;;;;4.07;3.78;;;15.00;99.90;;;;;;5032693;28;20234;-78
2022/06/07 00:04:43;;;;;;;5.20;4.18;;;15.10;99.90;;;;;;5027794;28;20207;-78
2022/06/07 00:07:11;;;;;;;4.13;3.83;;;15.20;99.90;;;;;;5031728;28;20210;-78
2022/06/07 00:09:39;;;;;;;5.07;4.57;;;15.00;99.90;;;;;;5044748;28;20191;-79
2022/06/07 00:12:07;;;;;;;4.60;4.20;;;15.10;99.90;;;;;;5022857;28;20219;-80
2022/06/07 00:14:35;;;;;;;6.18;5.55;;;15.00;99.90;;;;;;5020500;28;20232;-78
2022/06/07 00:17:05;;;;;;;6.72;6.03;;;15.00;99.90;;;;;;5056414;28;20204;-78
2022/06/07 00:19:32;;;;;;;5.68;5.13;;;15.10;99.90;;;;;;5062238;28;20664;-78
2022/06/07 00:22:01;;;;;;;5.70;5.13;;;14.90;99.90;;;;;;5027184;28;20250;-78
2022/06/07 00:24:29;;;;;;;7.70;5.90;;;14.80;99.90;;;;;;5034660;28;20520;-78
2022/06/07 00:26:56;;;;;;;7.55;6.85;;;14.80;99.90;;;;;;5030282;28;20210;-78
2022/06/07 00:29:26;;;;;;;7.10;6.40;;;14.80;99.90;;;;;;5063757;28;20568;-78
2022/06/07 00:31:54;;;;;;;9.45;7.95;;;15.00;99.90;;;;;;5025881;28;20211;-79
2022/06/07 00:34:24;;;;;;;9.43;8.23;;;15.00;99.90;;;;;;5026355;28;20206;-78
2022/06/07 00:36:51;;;;;;;10.93;9.88;;;15.10;99.90;;;;;;5028511;28;20569;-78
2022/06/07 00:39:20;;;;;;;9.98;9.07;;;15.30;99.90;;;;;;5029617;28;20210;-78
2022/06/07 00:41:48;;;;;;;11.30;8.60;;;15.40;99.90;;;;;;5029834;28;20552;-78
2022/06/07 00:44:31;;;;;;;9.15;7.40;;;15.30;99.90;;;;;;5031006;28;20199;-78
2022/06/07 00:47:39;;;;;;;9.43;8.15;;;15.20;99.90;;;;;;5029293;28;20199;-78
2022/06/07 00:50:13;;;;;;;10.13;9.13;;;15.10;99.90;;;;;;5053159;28;20198;-79
2022/06/07 00:52:40;;;;;;;9.70;8.77;;;15.10;99.90;;;;;;5061826;28;20227;-78
2022/06/07 00:55:11;;;;;;;10.38;9.00;;;15.20;99.90;;;;;;5033070;28;20195;-80
2022/06/07 00:57:45;;;;;;;11.68;9.25;;;15.10;99.90;;;;;;5032486;28;20206;-78
2022/06/07 01:00:22;;;;;;;9.80;8.80;;;15.20;99.90;;;;;;5017055;28;20207;-78
2022/06/07 01:02:51;;;;;;;10.52;9.07;;;15.20;99.90;;;;;;5028584;28;20705;-78
2022/06/07 01:05:30;;;;;;;10.75;9.55;;;15.20;99.90;;;;;;5030934;28;20215;-79
2022/06/07 01:10:55;;;;;;;11.88;10.30;;;15.00;99.90;;;;;;5062773;28;20555;-78
2022/06/07 01:13:32;;;;;;;12.77;11.48;;;15.00;99.90;;;;;;5056855;28;20293;-79
2022/06/07 01:16:07;;;;;;;13.57;11.00;;;15.00;99.90;;;;;;5026681;28;20199;-78
2022/06/07 01:18:38;;;;;;;13.23;11.52;;;15.10;99.90;;;;;;5027145;28;20662;-79
2022/06/07 01:21:18;;;;;;;12.10;10.48;;;15.20;99.90;;;;;;5041938;28;20195;-79
2022/06/07 01:23:46;;;;;;;12.93;11.57;;;15.20;99.90;;;;;;5047309;28;20222;-78
2022/06/07 01:26:15;;;;;;;12.57;11.13;;;15.00;99.90;;;;;;5031061;28;20219;-79
2022/06/07 01:28:43;;;;;;;11.38;10.27;;;15.00;99.90;;;;;;5024637;28;20214;-79
2022/06/07 01:31:11;;;;;;;13.80;10.85;;;14.90;99.90;;;;;;5027765;28;20206;-78
2022/06/07 01:33:39;;;;;;;14.13;10.23;;;14.80;99.90;;;;;;5030264;28;20226;-78
2022/06/07 01:36:09;;;;;;;10.70;9.57;;;14.80;99.90;;;;;;5030898;28;20564;-78
2022/06/07 01:38:40;;;;;;;10.77;9.27;;;14.70;99.90;;;;;;5027845;28;20663;-78
2022/06/07 01:43:55;;;;;;;12.93;9.40;;;14.80;99.90;;;;;;5022539;28;20214;-78
2022/06/07 01:46:23;;;;;;;10.77;9.13;;;14.70;99.90;;;;;;5023250;28;20585;-78
2022/06/07 01:48:50;;;;;;;9.55;8.45;;;14.60;99.90;;;;;;5057783;28;20206;-78
2022/06/07 01:51:18;;;;;;;9.50;8.48;;;14.70;99.90;;;;;;5039855;28;20191;-78
2022/06/07 01:53:48;;;;;;;9.20;8.30;;;14.80;99.90;;;;;;5027393;28;20672;-78
2022/06/07 01:56:17;;;;;;;9.13;8.18;;;14.70;99.90;;;;;;5034709;28;20565;-79
2022/06/07 01:58:49;;;;;;;9.18;8.30;;;14.80;99.90;;;;;;5027849;28;20208;-78
2022/06/07 02:01:17;;;;;;;8.93;7.20;;;14.80;99.90;;;;;;5030252;28;20199;-78
2022/06/07 02:03:44;;;;;;;9.88;7.55;;;14.70;99.90;;;;;;5036002;28;20229;-78
2022/06/07 02:06:13;;;;;;;8.70;7.35;;;14.70;99.90;;;;;;5031907;28;20245;-78
2022/06/07 02:08:44;;;;;;;7.13;6.53;;;14.70;99.90;;;;;;5042345;28;20187;-78
2022/06/07 02:11:18;;;;;;;8.73;7.13;;;14.80;99.90;;;;;;5032917;28;20550;-78
2022/06/07 02:13:53;;;;;;;8.20;7.13;;;14.60;99.90;;;;;;5020857;28;20227;-78
2022/06/07 02:16:22;;;;;;;8.52;7.07;;;14.50;99.90;;;;;;5028706;28;20205;-78
2022/06/07 02:18:50;;;;;;;8.25;7.47;;;14.60;99.90;;;;;;5025614;28;20215;-78
2022/06/07 02:21:27;;;;;;;9.10;7.30;;;14.60;99.90;;;;;;5025849;28;20206;-79
2022/06/07 02:23:55;;;;;;;8.10;7.38;;;14.50;99.90;;;;;;5032774;28;20704;-78
2022/06/07 02:26:27;;;;;;;7.43;6.65;;;14.50;99.90;;;;;;5031804;28;20222;-78
2022/06/07 02:28:57;;;;;;;8.10;6.57;;;14.50;99.90;;;;;;5027931;28;20225;-78
2022/06/07 02:31:27;;;;;;;7.35;6.60;;;14.50;99.90;;;;;;5029704;28;20207;-78
2022/06/07 02:33:58;;;;;;;7.57;6.35;;;14.40;99.90;;;;;;5026385;28;20577;-78
2022/06/07 02:36:29;;;;;;;8.00;6.85;;;14.20;99.90;;;;;;5030251;28;20202;-78
2022/06/07 02:38:56;;;;;;;7.15;6.45;;;14.30;99.90;;;;;;5027229;28;20558;-78
2022/06/07 02:41:27;;;;;;;6.32;5.72;;;14.40;99.90;;;;;;5029242;28;20211;-78
2022/06/07 02:43:55;;;;;;;7.32;5.82;;;14.40;99.90;;;;;;5029971;28;20222;-78
2022/06/07 02:46:23;;;;;;;6.15;5.55;;;14.40;99.90;;;;;;5027924;28;20293;-78
2022/06/07 02:48:51;;;;;;;8.65;5.60;;;14.20;99.90;;;;;;5028080;28;20584;-78
2022/06/07 02:51:19;;;;;;;6.03;5.13;;;14.30;99.90;;;;;;5026735;28;20195;-78
2022/06/07 02:53:47;;;;;;;6.50;5.65;;;14.40;99.90;;;;;;5031499;28;20225;-78
2022/06/07 02:56:15;;;;;;;5.65;5.15;;;14.20;99.90;;;;;;5059483;28;20191;-78
2022/06/07 02:58:44;;;;;;;6.63;5.13;;;14.40;99.90;;;;;;5027491;28;20207;-78
2022/06/07 03:01:12;;;;;;;7.20;5.55;;;14.40;99.90;;;;;;5028467;28;20218;-78
2022/06/07 03:03:43;;;;;;;6.32;4.82;;;14.40;99.90;;;;;;5025981;28;20220;-81
2022/06/07 03:06:14;;;;;;;4.85;4.32;;;14.40;99.90;;;;;;5032165;28;20226;-78
2022/06/07 03:08:43;;;;;;;7.28;4.82;;;14.40;99.90;;;;;;5038209;28;20204;-78
2022/06/07 03:11:38;;;;;;;4.95;4.43;;;14.30;99.90;;;;;;5043533;28;20561;-78
2022/06/07 03:14:10;;;;;;;5.25;4.53;;;14.50;99.90;;;;;;5031750;28;20207;-79
2022/06/07 03:16:38;;;;;;;4.97;4.57;;;14.50;99.90;;;;;;5028297;28;20209;-78
2022/06/07 03:19:06;;;;;;;6.88;5.07;;;14.50;99.90;;;;;;5028307;28;20206;-78
2022/06/07 03:21:39;;;;;;;5.75;3.95;;;14.40;99.90;;;;;;5026221;28;20199;-78
2022/06/07 03:24:08;;;;;;;4.80;4.40;;;14.50;99.90;;;;;;5029354;28;20553;-78
2022/06/07 03:26:35;;;;;;;7.22;4.68;;;14.40;99.90;;;;;;5025550;28;20211;-78
2022/06/07 03:29:14;;;;;;;7.13;4.45;;;14.40;99.90;;;;;;5029110;28;20198;-78
2022/06/07 03:31:42;;;;;;;5.40;4.80;;;14.40;99.90;;;;;;5028381;28;20206;-78
2022/06/07 03:34:13;;;;;;;4.78;4.05;;;14.50;99.90;;;;;;5056856;28;20202;-78
2022/06/07 03:36:42;;;;;;;5.07;4.00;;;14.40;99.90;;;;;;5033474;28;20195;-82
2022/06/07 03:39:11;;;;;;;6.82;4.40;;;14.40;99.90;;;;;;5030792;28;20187;-79
2022/06/07 03:41:45;;;;;;;5.15;3.63;;;14.40;99.90;;;;;;5033423;28;20199;-82
2022/06/07 03:44:27;;;;;;;3.92;3.50;;;14.40;99.90;;;;;;5028913;28;20203;-78
2022/06/07 03:47:02;;;;;;;4.85;3.90;;;14.50;99.90;;;;;;5050669;28;20208;-78
2022/06/07 03:49:30;;;;;;;3.53;3.22;;;14.50;99.90;;;;;;5026927;28;20202;-80
2022/06/07 03:52:00;;;;;;;4.57;3.63;;;14.50;99.90;;;;;;5027115;28;20225;-78
2022/06/07 03:54:32;;;;;;;7.32;4.05;;;14.50;99.90;;;;;;5037881;28;20563;-78
2022/06/07 03:57:00;;;;;;;3.80;3.50;;;14.50;99.90;;;;;;5035946;28;20200;-78
2022/06/07 03:59:32;;;;;;;4.93;3.58;;;14.50;99.90;;;;;;5032241;28;20213;-78
2022/06/07 04:02:00;;;;;;;4.82;3.53;;;14.50;99.90;;;;;;5033018;28;20222;-78
2022/06/07 04:04:28;;;;;;;4.53;3.40;;;14.40;99.90;;;;;;5033777;28;20195;-78
2022/06/07 04:09:49;;;;;;;7.18;3.50;;;14.40;99.90;;;;;;5029419;28;20661;-78
2022/06/07 04:12:23;;;;;;;6.47;3.63;;;14.40;99.90;;;;;;5028573;28;20215;-78
2022/06/07 04:14:54;;;;;;;4.10;3.05;;;14.40;99.90;;;;;;5032119;28;20211;-78
2022/06/07 04:17:23;;;;;;;5.05;3.35;;;14.40;99.90;;;;;;5021624;28;20199;-78
2022/06/07 04:19:57;;;;;;;5.05;3.28;;;14.40;99.90;;;;;;5026570;28;20200;-78
2022/06/07 04:22:25;;;;;;;3.72;3.38;;;14.40;99.90;;;;;;5034547;28;20219;-78
2022/06/07 04:24:58;;;;;;;4.72;3.83;;;14.40;99.90;;;;;;5031876;28;20210;-78
2022/06/07 04:27:27;;;;;;;5.68;3.17;;;14.40;99.90;;;;;;5029678;28;20225;-78
2022/06/07 04:29:58;;;;;;;3.83;3.17;;;14.40;99.90;;;;;;5029570;28;20697;-78
2022/06/07 04:32:26;;;;;;;4.97;3.33;;;14.50;99.90;;;;;;5024912;28;20219;-78
2022/06/07 04:34:55;;;;;;;4.25;2.90;;;14.60;99.90;;;;;;5030001;28;20199;-78
2022/06/07 04:37:24;;;;;;;5.80;3.05;;;14.60;99.90;;;;;;5029921;28;20677;-78
2022/06/07 04:39:56;;;;;;;4.55;3.30;;;14.60;99.90;;;;;;5031923;28;20697;-78
2022/06/07 04:42:24;;;;;;;4.32;3.15;;;14.70;99.90;;;;;;5024565;28;20604;-78
2022/06/07 04:45:04;;;;;;;4.00;2.88;;;14.80;99.90;;;;;;5025723;28;20206;-78
2022/06/07 04:47:49;;;;;;;7.15;3.65;;;14.80;99.90;;;;;;5028569;28;20226;-78
2022/06/07 04:50:18;;;;;;;5.68;2.95;;;14.80;99.90;;;;;;5030676;28;20206;-79
2022/06/07 04:52:47;;;;;;;3.20;2.78;;;15.00;99.90;;;;;;5026406;28;20223;-78
2022/06/07 04:56:08;;;;;;;4.80;3.45;;;15.00;99.90;;;;;;5033094;28;20696;-79
2022/06/07 04:58:35;;;;;;;4.03;2.85;;;15.00;99.90;;;;;;5032577;28;20183;-78
2022/06/07 05:01:09;;;;;;;6.45;3.67;;;15.10;99.90;;;;;;5026287;28;20207;-80
2022/06/07 05:03:37;;;;;;;3.80;3.33;;;15.00;99.90;;;;;;5029271;28;20220;-78
2022/06/07 05:06:17;;;;;;;4.85;3.13;;;15.00;99.90;;;;;;5039369;28;20199;-77
2022/06/07 05:08:46;;;;;;;5.25;2.83;;;15.00;99.90;;;;;;5045339;28;20217;-79
2022/06/07 05:11:15;;;;;;;5.30;2.95;;;15.10;99.90;;;;;;5045413;28;20662;-77
2022/06/07 05:13:45;;;;;;;3.97;2.80;;;15.00;99.90;;;;;;5032537;28;20226;-78
2022/06/07 05:16:14;;;;;;;6.22;3.00;;;15.00;99.90;;;;;;5039082;28;20203;-78
2022/06/07 05:19:07;;;;;;;2.95;2.60;;;15.10;99.90;;;;;;5027157;28;20662;-79
2022/06/07 05:21:35;;;;;;;3.15;2.50;;;15.00;99.90;;;;;;5060651;28;20206;-78
2022/06/07 05:24:04;;;;;;;5.75;3.13;;;15.00;99.90;;;;;;5059915;28;20245;-77
2022/06/07 05:26:37;;;;;;;5.75;2.80;;;15.00;99.90;;;;;;5027879;28;20195;-78
2022/06/07 05:29:06;;;;;;;3.90;2.78;;;15.00;99.90;;;;;;5025513;28;20562;-78
2022/06/07 05:31:36;;;;;;;3.05;2.50;;;15.00;99.90;;;;;;5017895;28;20692;-78
2022/06/07 05:34:03;;;;;;;5.18;2.80;;;15.20;99.90;;;;;;5023343;28;20494;-78
2022/06/07 05:36:32;;;;;;;6.30;2.88;;;15.20;99.90;;;;;;5039272;28;20196;-78
2022/06/07 05:39:04;;;;;;;5.20;2.55;;;15.10;99.90;;;;;;5027246;28;20195;-78
2022/06/07 05:41:33;;;;;;;3.80;2.40;;;15.20;99.90;;;;;;5027242;28;20203;-79
2022/06/07 05:44:07;;;;;;;3.80;2.40;;;15.30;99.90;;;;;;5031022;28;20202;-78
2022/06/07 05:46:40;;;;;;;5.22;2.85;;;15.40;99.90;;;;;;5024477;28;20658;-78
2022/06/07 05:49:17;;;;;;;4.05;3.40;;;15.50;99.90;;;;;;5025541;28;20229;-78
2022/06/07 05:51:56;;;;;;;3.15;2.50;;;15.50;99.90;;;;;;5031123;28;20209;-78
2022/06/07 05:54:38;;;;;;;5.03;3.13;;;15.40;99.90;;;;;;5031681;28;20191;-78
2022/06/07 05:57:07;;;;;;;3.47;2.67;;;15.40;99.90;;;;;;5028458;28;20195;-78
2022/06/07 05:59:35;;;;;;;3.97;2.78;;;15.40;99.90;;;;;;5025930;28;20202;-78
2022/06/07 06:02:04;;;;;;;3.70;2.70;;;15.50;99.90;;;;;;5029549;28;20218;-79
2022/06/07 06:04:37;;;;;;;4.75;2.50;;;15.30;99.90;;;;;;5024623;28;20202;-78
2022/06/07 06:07:05;;;;;;;6.50;3.00;;;15.50;99.90;;;;;;5026825;28;20191;-79
2022/06/07 06:12:23;;;;;;;6.03;2.50;;;15.40;99.90;;;;;;5031111;28;20677;-78
2022/06/07 06:14:59;;;;;;;3.10;2.35;;;15.50;99.90;;;;;;5030071;28;20205;-78
2022/06/07 06:17:32;;;;;;;3.28;2.50;;;15.50;99.90;;;;;;5030481;28;20206;-78
2022/06/07 06:20:13;;;;;;;3.78;2.53;;;15.50;99.90;;;;;;5028324;28;20665;-78
2022/06/07 06:22:56;;;;;;;5.32;2.60;;;15.50;99.90;;;;;;5030028;28;20226;-78
2022/06/07 06:25:23;;;;;;;3.88;2.15;;;15.50;99.90;;;;;;5029165;28;20198;-79
2022/06/07 06:27:53;;;;;;;6.50;2.78;;;15.50;99.90;;;;;;5030675;28;20230;-79
2022/06/07 06:30:21;;;;;;;5.35;2.92;;;15.70;99.90;;;;;;5030010;28;20202;-79
2022/06/07 06:33:07;;;;;;;2.90;2.03;;;15.80;99.90;;;;;;5029451;28;20613;-79
2022/06/07 06:35:34;;;;;;;4.05;2.63;;;16.00;99.90;;;;;;5055134;28;20649;-79
2022/06/07 06:38:03;;;;;;;4.35;2.25;;;16.10;99.90;;;;;;5030415;28;20191;-79
2022/06/07 06:40:30;;;;;;;4.53;2.50;;;16.20;99.90;;;;;;5025032;28;20215;-79
2022/06/07 06:43:02;;;;;;;4.32;2.28;;;16.20;99.90;;;;;;5021605;28;20230;-80
2022/06/07 06:45:36;;;;;;;5.30;2.47;;;16.10;99.90;;;;;;5030469;28;20191;-79
2022/06/07 06:48:13;;;;;;;6.60;2.20;;;16.00;99.90;;;;;;5030765;28;20213;-80
2022/06/07 06:50:42;;;;;;;4.18;2.30;;;16.20;99.90;;;;;;5029888;28;20203;-80
2022/06/07 06:53:11;;;;;;;3.75;2.50;;;16.20;99.90;;;;;;5049605;28;20222;-79
2022/06/07 06:55:43;;;;;;;3.70;2.15;;;16.20;99.90;;;;;;5027211;28;20685;-79
2022/06/07 06:58:14;;;;;;;2.88;2.28;;;16.20;99.90;;;;;;5022817;28;20195;-79
2022/06/07 07:00:43;;;;;;;3.72;2.25;;;16.40;99.90;;;;;;5025375;28;20203;-80
2022/06/07 07:03:12;;;;;;;5.30;2.25;;;16.40;99.90;;;;;;5027439;28;20219;-79
2022/06/07 07:05:40;;;;;;;4.15;2.60;;;16.40;99.90;;;;;;5023186;28;20191;-79
2022/06/07 07:08:10;;;;;;;3.78;2.60;;;16.40;99.90;;;;;;5054765;28;20218;-79
2022/06/07 07:10:38;;;;;;;3.85;2.55;;;16.40;99.90;;;;;;5027894;28;20190;-80
2022/06/07 07:13:09;;;;;;;5.78;3.03;;;16.50;99.90;;;;;;5063484;28;20222;-79
2022/06/07 07:15:39;;;;;;;6.22;2.60;;;16.60;99.90;;;;;;5034642;28;20740;-79
2022/06/07 07:18:13;;;;;;;3.75;3.10;;;16.80;99.90;;;;;;5061934;28;20198;-82
2022/06/07 07:20:46;;;;;;;5.97;2.88;;;16.80;99.90;;;;;;5030685;28;20202;-80
2022/06/07 07:23:16;;;;;;;4.50;3.00;;;16.90;99.90;;;;;;5040135;28;20588;-81
2022/06/07 07:25:44;;;;;;;4.47;3.38;;;17.10;99.90;;;;;;5033446;28;20198;-80
2022/06/07 07:28:14;;;;;;;5.88;2.80;;;17.00;99.90;;;;;;5034009;28;20211;-80
2022/06/07 07:30:42;;;;;;;5.57;3.08;;;17.00;99.90;;;;;;5034456;28;20191;-82
2022/06/07 07:33:11;;;;;;;5.18;2.80;;;17.10;99.90;;;;;;5034169;28;20214;-80
2022/06/07 07:35:39;;;;;;;6.68;3.17;;;17.20;99.90;;;;;;5037140;28;20210;-80
2022/06/07 07:38:09;;;;;;;4.25;2.88;;;17.20;99.90;;;;;;5024130;28;20198;-80
2022/06/07 07:40:41;;;;;;;3.10;2.80;;;17.40;99.90;;;;;;5031072;28;20200;-80
2022/06/07 07:43:10;;;;;;;5.97;3.50;;;17.40;99.90;;;;;;5040000;28;20217;-80
2022/06/07 07:45:38;;;;;;;6.28;2.95;;;17.30;99.90;;;;;;5036489;23;20723;-77
2022/06/07 07:48:07;;;;;;;4.68;3.53;;;17.30;99.90;;;;;;4987610;28;20219;-78
2022/06/07 07:50:41;;;;;;;3.50;3.20;;;17.30;99.90;;;;;;4990021;28;20201;-78
2022/06/07 07:53:10;;;;;;;4.82;3.10;;;17.30;99.90;;;;;;5009187;28;20654;-77
2022/06/07 07:55:44;;;;;;;5.53;3.08;;;17.40;99.90;;;;;;5010767;28;20220;-78
2022/06/07 07:58:12;;;;;;;7.03;3.47;;;17.40;99.90;;;;;;4995961;28;20226;-78
2022/06/07 08:00:42;;;;;;;5.57;3.40;;;17.30;99.90;;;;;;4982663;28;20689;-78
2022/06/07 08:03:11;;;;;;;8.85;3.60;;;17.50;99.90;;;;;;4991259;28;20197;-78
2022/06/07 08:05:45;;;;;;;4.13;3.05;;;17.30;99.90;;;;;;4975341;28;20225;-77
2022/06/07 08:08:13;;;;;;;6.75;3.40;;;17.50;99.90;;;;;;4975133;28;20686;-78
2022/06/07 08:10:41;;;;;;;4.60;3.28;;;17.80;99.90;;;;;;4994628;28;20196;-78
2022/06/07 08:13:08;;;;;;;5.90;3.83;;;17.80;99.90;;;;;;4994966;28;20201;-78
2022/06/07 08:15:36;;;;;;;5.13;3.03;;;17.80;99.90;;;;;;4991004;28;20228;-77
2022/06/07 08:18:04;;;;;;;5.57;3.47;;;17.60;99.90;;;;;;4990692;28;20208;-77
2022/06/07 08:20:37;;;;;;;5.05;3.10;;;17.70;99.90;;;;;;4994911;28;20250;-77
2022/06/07 08:23:08;;;;;;;10.93;3.60;;;17.70;99.90;;;;;;4994418;28;20567;-78
2022/06/07 08:25:38;;;;;;;6.35;3.65;;;17.80;99.90;;;;;;4995596;28;20216;-77
2022/06/07 08:28:06;;;;;;;5.43;3.50;;;17.90;99.90;;;;;;4992415;28;20204;-78
2022/06/07 08:30:34;;;;;;;8.05;2.90;;;17.90;99.90;;;;;;4989337;28;20209;-77
2022/06/07 08:37:32;;;;;;;3.97;2.72;;;17.90;99.90;;;;;;4993806;28;20200;-78
2022/06/07 08:38:36;;;;;;;6.07;2.80;;;18.00;99.90;;;;;;4989617;28;20196;-77
2022/06/07 08:41:03;;;;;;;2.80;2.03;;;18.00;99.90;;;;;;4992276;28;20207;-78
2022/06/07 08:43:31;;;;;;;4.25;2.58;;;18.00;99.90;;;;;;4992948;28;20201;-77
2022/06/07 08:45:59;;;;;;;5.18;2.22;;;18.10;99.90;;;;;;4989556;28;20232;-78
2022/06/07 08:48:32;;;;;;;4.20;2.20;;;18.10;99.90;;;;;;4992296;28;20560;-77
2022/06/07 08:51:08;;;;;;;3.78;1.98;;;18.20;97.90;;;;;;4991591;28;20200;-77
2022/06/07 08:53:44;;;;;;;2.42;1.60;;;18.30;97.30;;;;;;5004201;28;20203;-77
2022/06/07 08:56:16;;;;;;;4.20;2.22;;;18.30;96.80;;;;;;5007315;28;20231;-78
2022/06/07 09:02:46;;;;;;;4.47;2.72;;;18.50;96.10;;;;;;4998807;28;20180;-77
2022/06/07 09:05:15;;;;;;;4.68;2.53;;;18.40;95.30;;;;;;4986672;28;20227;-77
2022/06/07 09:07:43;;;;;;;3.08;2.25;;;18.50;95.00;;;;;;4991360;28;20227;-78
2022/06/07 09:13:05;;;;;;;2.50;1.80;;;18.70;95.10;;;;;;4992601;28;20208;-77
2022/06/07 09:15:35;;;;;;;3.13;1.98;;;18.90;95.00;;;;;;5009545;28;20239;-77
2022/06/07 09:18:35;;;;;;;2.55;2.05;;;18.70;93.90;;;;;;4992750;28;20208;-77
2022/06/07 09:21:09;;;;;;;4.47;3.10;;;18.80;94.60;;;;;;4985624;28;20209;-78
2022/06/07 09:23:43;;;;;;;3.80;2.40;;;18.50;93.60;;;;;;4999903;28;20789;-77
2022/06/07 09:26:24;;;;;;;4.03;2.60;;;18.60;94.60;;;;;;4985842;28;20219;-78
2022/06/07 09:29:06;;;;;;;3.38;2.22;;;18.60;94.30;;;;;;4985299;28;20208;-78
2022/06/07 09:31:33;;;;;;;4.68;2.60;;;18.90;94.70;;;;;;5008094;28;20200;-78
2022/06/07 09:34:06;;;;;;;3.53;2.65;;;18.80;94.30;;;;;;4992753;28;20200;-77
2022/06/07 09:36:37;;;;;;;7.38;2.75;;;18.90;94.50;;;;;;4990679;28;20220;-78
2022/06/07 09:39:09;;;;;;;3.80;2.10;;;18.80;95.40;;;;;;4991236;28;20192;-77
2022/06/07 09:41:41;;;;;;;3.58;2.53;;;18.80;95.80;;;;;;4992606;28;20196;-78
2022/06/07 09:44:21;;;;;;;3.33;2.13;;;18.80;96.30;;;;;;4990617;28;20205;-78
2022/06/07 09:46:51;;;;;;;2.30;1.90;;;18.90;96.70;;;;;;4984656;28;20227;-78
2022/06/07 09:49:36;;;;;;;5.03;2.22;;;18.90;96.80;;;;;;5006477;28;20209;-78
2022/06/07 09:52:14;;;;;;;2.72;2.35;;;19.10;96.70;;;;;;5007983;28;20200;-78
2022/06/07 09:54:44;;;;;;;2.90;2.17;;;19.00;95.70;;;;;;4989935;28;20227;-78
2022/06/07 09:57:34;;;;;;;3.55;1.85;;;18.90;95.70;;;;;;4986094;28;20557;-78
2022/06/07 10:00:19;;;;;;;4.50;2.28;;;18.80;96.30;;;;;;4997999;28;20223;-77
2022/06/07 10:03:17;;;;;;;3.53;2.40;;;18.80;96.50;;;;;;4993768;28;20200;-77
2022/06/07 10:05:55;;;;;;;4.72;2.80;;;19.00;97.40;;;;;;4981260;28;20717;-78
2022/06/07 10:08:54;;;;;;;4.65;2.50;;;18.90;98.60;;;;;;4984703;28;20697;-78
2022/06/07 10:11:28;;;;;;;4.40;1.95;;;18.80;97.80;;;;;;4912733;28;20694;-77
2022/06/07 10:14:09;;;;;;;4.32;2.10;;;18.80;98.20;;;;;;4984976;28;20196;-78
2022/06/07 10:16:48;;;;;;;3.83;1.92;;;18.80;98.40;;;;;;4979934;28;20219;-78
2022/06/07 10:19:33;;;;;;;4.85;2.75;;;18.90;98.30;;;;;;4991990;28;20207;-78
2022/06/07 10:22:33;;;;;;;2.45;2.25;;;19.00;98.10;;;;;;4984761;28;20196;-78
2022/06/07 10:25:11;;;;;;;4.38;2.10;;;19.00;98.40;;;;;;4984223;28;20220;-78
2022/06/07 10:27:51;;;;;;;5.47;2.20;;;18.90;98.40;;;;;;4981208;28;20592;-78
2022/06/07 10:30:26;;;;;;;3.55;2.10;;;18.80;99.40;;;;;;4999155;28;20705;-78
2022/06/07 10:33:18;;;;;;;3.75;2.22;;;18.80;99.90;;;;;;4987144;28;20577;-78
2022/06/07 10:35:51;;;;;;;4.55;2.20;;;19.00;99.90;;;;;;4984183;28;20236;-77
2022/06/07 10:38:41;;;;;;;5.32;2.25;;;19.20;99.90;;;;;;4982064;28;20202;-78
2022/06/07 10:41:18;;;;;;;2.38;1.90;;;19.10;99.50;;;;;;4998806;28;20196;-77
2022/06/07 10:43:53;;;;;;;4.93;2.00;;;19.10;99.90;;;;;;5001964;28;20200;-77
2022/06/07 10:46:22;;;;;;;5.22;2.40;;;19.30;99.20;;;;;;4983666;28;20231;-77
2022/06/07 10:49:03;;;;;;;3.63;2.22;;;19.30;99.00;;;;;;4982112;28;20209;-78
2022/06/07 10:54:27;;;;;;;8.18;2.28;;;19.40;99.00;;;;;;4983633;28;20252;-77
2022/06/07 10:57:03;;;;;;;3.58;1.70;;;19.30;98.30;;;;;;4989224;28;20227;-77
2022/06/07 10:59:32;;;;;;;3.42;2.47;;;19.20;98.00;;;;;;5004589;28;20211;-77
2022/06/07 11:02:20;;;;;;;1.92;1.70;;;19.20;97.90;;;;;;4985115;28;20580;-77
2022/06/07 11:10:33;;;;;;;2.25;2.03;;;19.50;97.60;;;;;;4994515;28;20215;-77
2022/06/07 11:13:17;;;;;;;5.78;2.42;;;19.70;98.00;;;;;;5003866;28;20693;-77
2022/06/07 11:15:56;;;;;;;7.45;3.30;;;19.70;97.20;;;;;;4985870;28;20231;-77
2022/06/07 11:18:30;;;;;;;2.42;1.77;;;19.60;97.40;;;;;;4986111;28;20187;-76
2022/06/07 11:21:24;;;;;;;2.17;1.98;;;19.70;97.30;;;;;;4988968;28;20196;-77
2022/06/07 11:23:59;;;;;;;4.93;2.50;;;19.60;97.10;;;;;;5000330;28;20204;-78
2022/06/07 11:26:27;;;;;;;5.30;2.20;;;19.80;97.40;;;;;;4985703;28;20219;-77
2022/06/07 11:28:56;;;;;;;2.40;2.00;;;20.00;97.10;;;;;;4996718;28;20220;-77
2022/06/07 11:31:39;;;;;;;2.40;1.95;;;20.00;96.40;;;;;;4984125;28;20231;-78
2022/06/07 11:34:23;;;;;;;5.55;2.50;;;20.20;96.80;;;;;;4980389;28;20200;-78
2022/06/07 11:36:51;;;;;;;5.30;2.00;;;20.30;95.90;;;;;;4982456;28;20225;-78
2022/06/07 11:39:23;;;;;;;3.15;1.95;;;20.30;96.40;;;;;;4995400;28;20809;-78
2022/06/07 11:41:52;;;;;;;3.72;1.50;;;20.20;96.20;;;;;;4998346;28;20780;-78
2022/06/07 11:44:39;;;;;;;2.42;2.17;;;20.10;95.80;;;;;;4981691;28;20570;-78
2022/06/07 11:47:27;;;;;;;2.85;2.15;;;20.10;95.80;;;;;;4999231;28;20204;-78
2022/06/07 11:50:13;;;;;;;3.50;1.80;;;20.00;96.00;;;;;;4980824;28;20215;-78
2022/06/07 11:52:57;;;;;;;2.15;1.58;;;19.90;96.10;;;;;;4999600;28;20208;-78
2022/06/07 11:55:27;;;;;;;3.35;1.67;;;20.00;96.60;;;;;;4976917;28;20228;-78
2022/06/07 11:58:03;;;;;;;2.30;1.80;;;20.10;95.90;;;;;;4984188;28;20207;-78
2022/06/07 12:00:46;;;;;;;3.13;2.30;;;20.10;96.00;;;;;;4978526;28;20196;-78
2022/06/07 12:03:34;;;;;;;2.88;2.17;;;20.00;95.60;;;;;;4984982;28;20211;-78
2022/06/07 12:06:20;;;;;;;3.17;1.90;;;20.00;96.50;;;;;;5000331;28;20232;-78
2022/06/07 12:08:58;;;;;;;4.38;2.80;;;20.10;96.60;;;;;;4985767;28;20212;-78
2022/06/07 12:11:28;;;;;;;3.00;2.60;;;20.20;96.50;;;;;;4985576;28;20223;-78
2022/06/07 12:14:19;;;;;;;5.32;3.10;;;20.00;96.50;;;;;;4984998;28;20215;-78
2022/06/07 12:16:54;;;;;;;4.45;2.85;;;20.10;96.80;;;;;;5000253;28;20231;-78
2022/06/07 12:19:24;;;;;;;5.00;3.00;;;20.10;96.90;;;;;;4978593;28;20223;-78
2022/06/07 12:21:59;;;;;;;6.07;3.08;;;20.00;97.80;;;;;;5005698;28;20204;-78
2022/06/07 12:24:28;;;;;;;3.72;2.78;;;20.10;97.10;;;;;;4996130;28;20192;-80
2022/06/07 12:27:11;;;;;;;3.35;2.85;;;20.10;97.60;;;;;;4990015;28;20691;-79
2022/06/07 12:29:44;;;;;;;5.72;2.90;;;20.00;97.50;;;;;;4992472;28;20220;-79
2022/06/07 12:32:20;;;;;;;3.50;2.30;;;20.00;98.00;;;;;;4992057;28;20219;-79
2022/06/07 12:34:48;;;;;;;4.13;2.53;;;20.00;98.20;;;;;;5006297;28;20204;-79
2022/06/07 12:37:25;;;;;;;2.75;2.15;;;20.10;98.20;;;;;;5011732;28;20204;-79
2022/06/07 12:39:56;;;;;;;4.15;2.80;;;20.10;98.00;;;;;;5006686;28;20211;-77
2022/06/07 12:42:27;;;;;;;4.80;2.42;;;19.90;98.00;;;;;;5000877;28;20200;-77
2022/06/07 12:44:57;;;;;;;4.10;2.40;;;20.00;98.20;;;;;;4989107;28;20207;-77
2022/06/07 12:47:28;;;;;;;2.58;2.38;;;19.80;98.10;;;;;;4985929;28;20216;-77
2022/06/07 12:49:55;;;;;;;5.15;2.60;;;19.80;98.20;;;;;;4991138;28;20199;-77
2022/06/07 12:52:28;;;;;;;4.13;2.53;;;19.70;98.40;;;;;;4986782;28;20231;-77
2022/06/07 12:55:00;;;;;;;4.28;2.53;;;19.60;99.60;;;;;;5007295;28;20200;-77
2022/06/07 12:57:46;;;;;;;3.80;2.50;;;19.60;99.90;;;;;;4988404;28;20201;-77
2022/06/07 13:00:20;;;;;;;4.18;2.22;;;19.60;99.90;;;;;;4985250;28;20212;-77
2022/06/07 13:02:51;;;;;;;3.63;2.20;;;19.50;99.90;;;;;;4994259;28;20212;-77
2022/06/07 13:05:21;;;;;;;6.55;2.00;;;19.50;99.90;;;;;;4992714;28;20220;-77
2022/06/07 13:07:52;;;;;;;3.92;1.90;;;19.60;99.90;;;;;;4988844;28;20526;-77
2022/06/07 13:10:22;;;;;;;2.80;1.80;;;19.60;99.90;;;;;;4994229;28;20199;-78
2022/06/07 13:13:17;;;;;;;4.35;1.52;;;19.90;99.80;;;;;;4991771;28;20571;-77
2022/06/07 13:15:55;;;;;;;2.50;0.80;;;19.80;97.30;;;;;;4987560;28;20220;-77
2022/06/07 13:18:28;;;;;;;1.85;0.90;;;19.70;97.20;;;;;;4990194;28;20200;-77
2022/06/07 13:21:13;;;;;;;0.90;0.70;;;19.60;97.30;;;;;;4990753;28;20200;-77
2022/06/07 13:23:44;;;;;;;1.25;1.02;;;19.40;98.00;;;;;;4989239;28;20551;-77
2022/06/07 13:26:20;;;;;;;2.05;1.00;;;19.40;99.00;;;;;;5003763;28;20220;-77
2022/06/07 13:29:02;;;;;;;1.52;1.20;;;19.50;99.80;;;;;;4987792;28;20204;-77
2022/06/07 13:31:53;;;;;;;3.55;1.30;;;19.50;99.90;;;;;;4999637;28;20208;-77
2022/06/07 13:34:22;;;;;;;2.90;1.17;;;19.30;99.90;;;;;;4988735;28;20535;-77
2022/06/07 13:37:12;;;;;;;4.95;1.75;;;19.20;99.90;;;;;;4992516;28;20584;-77
2022/06/07 13:39:44;;;;;;;2.40;1.35;;;19.10;99.90;;;;;;5008193;28;20208;-77
2022/06/07 13:42:20;;;;;;;2.60;1.40;;;19.20;99.90;;;;;;5004349;28;20189;-77
2022/06/07 13:44:58;;;;;;;2.45;1.38;;;19.10;99.90;;;;;;4991992;28;20192;-77
2022/06/07 13:47:31;;;;;;;1.70;1.20;;;18.90;99.90;;;;;;4989582;28;20200;-77